Terminal Aerodrome Forecast
Issued by NWS Duluth, MN

Home | Current Version | Previous Version | Text Only | Print | Product List | Glossary On
Versions: 1 2 3 4 5 6 7 8 9 10 11 12 13 14 15 16 17 18 19 20 21 22 23
673
FTUS43 KDLH 142341
TAFINL
TAF
KINL 142341Z 1500/1524 VRB03KT P6SM VCTS FEW090CB
     FM150100 00000KT P6SM SCT150
     FM151000 00000KT 5SM BR SCT150
     FM151200 17004KT P6SM SKC
     FM152100 17005KT P6SM BKN100=

USA.gov is the U.S. government's official web portal to all federal, state and local government web resources and services.